バマコ の空港の天気 - METARとTAF

バマコ・セヌー国際空港 ( GABS / BKO ) - マリ バマコ
飛行場実況気象(Metar)
観測時間04/21 16:30 GMT (04/21 16:30 UTC)
風向・風速南西 5m/s
視程10km以上
天気現象
少しの雲 雲底高度 910m
気温37℃
湿度31%
気圧1009hPa
METARGABS 211630Z 23010KT 190V260 9999 FEW030 37/17 Q1009 NOSIG
過去の天気等 Google飛行場航空写真 Wunderground天気予報

過去48時間のMETAR

飛行場予報(TAF)
発表時間: 4/21 11:00 GMT (4/21 11:00 UTC)
予報対象時間: 21日12時 GMT ~ 22日18時 GMT
風向・風速南西 6m/s
視程10km以上
少しの雲 雲底高度 910m
21日13時 GMT ~ 21日20時 GMT に一時的に
風向・風速不定 8m/s 瞬間風速 15m/s
視程4000m
天気現象高い風塵 雷雨
全天の8割程度の雲 雲底高度 910m
少しの積乱雲 雲底高度 1220m
21日22時 GMT ~ 22日5時 GMT に 確率 40% で一時的に
風向・風速不定 8m/s 瞬間風速 13m/s
視程4500m
天気現象雷雨
全天の4割程度の雲 雲底高度 910m
少しの積乱雲 雲底高度 1220m
TAF GABS 211100Z 2112/2218 22012KT 9999 FEW030
TEMPO 2113/2120 VRB15G30KT 4000 BLDU TSRA BKN030 FEW040CB
PROB40 TEMPO 2122/2205 VRB15G25KT 4500 TSRA SCT030 FEW040CB